OPMET data Ceska Republika - 18.05.2022 23:07:30
��zen� letov�ho provozu �esk� republiky
OPMET data - Ceska Republika Aktualizace: 18.05.2022 23:07:30  UTC
SIGMET / AIRMET - NIL
Warning / Vystraha - NIL
AIREP - NIL
REG QNH
REGIONAL QNH FORECAST ISSUED 2022-05-18 20:43 AREA VALID FM/TL QNH/HPA/ : LKAA 182100/190000 1023 =
 
METAR / SPECI
METAR LKBC NIL
METAR LKCS 182300Z AUTO 00000KT CAVOK 10/03 Q1026=
METAR LKCV 182300Z 14007KT CAVOK 11/02 Q1026 NOSIG RMK BLU BLU=
METAR LKKB 182300Z 15005KT CAVOK 13/06 Q1025 NOSIG RMK BLU BLU=
METAR LKKU NIL
METAR LKKV 182300Z 14004KT CAVOK 11/06 Q1025=
METAR LKLN 182300Z AUTO VRB01KT CAVOK 14/06 Q1025=
METAR LKMT 182300Z 20004KT CAVOK 05/02 Q1028 NOSIG=
METAR LKNA 182300Z 11005KT CAVOK 12/M03 Q1027 RMK BLU=
METAR LKPD 182300Z 06004KT CAVOK 10/03 Q1026 RMK BLACK=
METAR LKPJ 182300Z AUTO 27002KT CAVOK 06/03 Q1028=
METAR LKPR 182300Z 17006KT CAVOK 12/07 Q1025 NOSIG RMK REG QNH 1023=
METAR LKTB 182300Z VRB01KT CAVOK 09/00 Q1027 NOSIG=
METAR LKVO NIL
TAF
TAF LKBC NIL
TAF LKCS NIL
TAF LKCV 181700Z 1818/1918 08005KT CAVOK      BECMG 1820/1822 15006KT      TEMPO 1912/1918 16015KT=
TAF LKKB 181700Z 1818/1918 11008KT CAVOK      TEMPO 1901/1907 VRB02KT=
TAF LKKU NIL
TAF LKKV 182300Z 1900/2006 14006KT CAVOK      TEMPO 1911/1917 19014KT      TEMPO 1920/1923 28016G30KT 3000 TSRA SCT050CB      BECMG 1923/2001 28004KT=
TAF LKLN NIL
TAF LKMT 182300Z 1900/2006 22005KT CAVOK      BECMG 1906/1908 20012KT      TEMPO 1908/1916 22014G26KT=
TAF LKNA 181700Z 1818/1918 12006KT CAVOK      TEMPO 1908/1918 14017KT=
TAF LKPD NIL
TAF LKPJ NIL
TAF LKPR 182300Z 1900/2006 16007KT CAVOK      BECMG 1920/1922 24010KT      TEMPO 1922/2002 27018KT 9999 SCT060CB=
TAF LKTB 182300Z 1900/2006 VRB02KT CAVOK      BECMG 1905/1907 15008KT      TEMPO 1908/1918 17012G22KT      BECMG 1923/2001 VRB02KT=
TAF LKVO NIL

Login

using the Single Sign On for Aeronautical Information Service applications service.
What is it?

External METEO

Other Aerodrome in CR

6.0.0.05145@ibs-dmz1